Time;durP1;ratioP1;P1;durP2;ratioP2;P2;SDS_P1;SDS_P2;PMS_P1;PMS_P2;Temp;Humidity;BMP_temperature;BMP_pressure;BME280_temperature;BME280_humidity;BME280_pressure;Samples;Min_cycle;Max_cycle;Signal;HPM_P1;HPM_P2
2024/03/03 00:01:32;;;;;;;52.08;33.08;;;;;;;;;;5035039;28;20366;-69
2024/03/03 00:04:04;;;;;;;94.72;56.83;;;;;;;;;;5051257;23;20993;-65
2024/03/03 00:06:31;;;;;;;69.80;43.15;;;;;;;;;;5118221;22;20127;-65
2024/03/03 00:08:57;;;;;;;55.28;34.17;;;;;;;;;;5096883;28;20028;-69
2024/03/03 00:11:23;;;;;;;52.28;33.92;;;;;;;;;;5096738;28;20115;-69
2024/03/03 00:13:48;;;;;;;53.55;32.53;;;;;;;;;;5096511;28;20028;-69
2024/03/03 00:16:14;;;;;;;55.78;32.40;;;;;;;;;;5096988;28;20031;-69
2024/03/03 00:18:39;;;;;;;57.70;36.10;;;;;;;;;;5096445;28;20437;-70
2024/03/03 00:21:11;;;;;;;78.13;50.30;;;;;;;;;;5078595;28;20028;-66
2024/03/03 00:23:36;;;;;;;57.40;36.42;;;;;;;;;;5078846;28;20032;-66
2024/03/03 00:26:02;;;;;;;52.92;32.58;;;;;;;;;;5096570;28;20035;-66
2024/03/03 00:28:28;;;;;;;53.33;33.67;;;;;;;;;;5096532;28;20035;-66
2024/03/03 00:30:53;;;;;;;64.22;44.25;;;;;;;;;;5097118;28;20020;-65
2024/03/03 00:33:18;;;;;;;51.83;32.50;;;;;;;;;;5098832;28;20087;-64
2024/03/03 00:35:44;;;;;;;54.05;34.60;;;;;;;;;;5099139;28;20036;-65
2024/03/03 00:38:09;;;;;;;55.92;34.33;;;;;;;;;;5096904;28;20074;-65
2024/03/03 00:40:35;;;;;;;58.85;36.97;;;;;;;;;;5077878;28;20065;-65
2024/03/03 00:43:00;;;;;;;54.33;33.03;;;;;;;;;;5109385;22;20048;-67
2024/03/03 00:45:26;;;;;;;57.80;33.78;;;;;;;;;;5096145;28;20032;-69
2024/03/03 00:47:51;;;;;;;53.22;33.15;;;;;;;;;;5096130;28;20103;-69
2024/03/03 00:50:16;;;;;;;52.75;33.60;;;;;;;;;;5077618;28;20419;-69
2024/03/03 00:52:42;;;;;;;52.42;31.80;;;;;;;;;;5096024;28;20012;-70
2024/03/03 00:55:09;;;;;;;52.50;32.83;;;;;;;;;;5077562;28;20031;-70
2024/03/03 00:57:35;;;;;;;50.05;31.80;;;;;;;;;;5077280;28;20107;-70
2024/03/03 01:00:00;;;;;;;53.33;32.97;;;;;;;;;;5060363;28;20063;-70
2024/03/03 01:02:25;;;;;;;53.03;32.72;;;;;;;;;;5060763;28;20027;-70
2024/03/03 01:04:51;;;;;;;53.70;32.17;;;;;;;;;;5077374;28;20433;-70
2024/03/03 01:07:16;;;;;;;55.35;33.47;;;;;;;;;;5077763;28;20035;-70
2024/03/03 01:09:42;;;;;;;49.80;32.70;;;;;;;;;;5095414;28;20020;-70
2024/03/03 01:12:07;;;;;;;51.33;33.35;;;;;;;;;;5077177;28;20036;-70
2024/03/03 01:14:32;;;;;;;50.05;31.70;;;;;;;;;;5095336;28;20116;-71
2024/03/03 01:16:58;;;;;;;51.28;31.98;;;;;;;;;;5077203;28;20095;-71
2024/03/03 01:19:23;;;;;;;51.42;31.85;;;;;;;;;;5095490;28;20028;-69
2024/03/03 01:21:49;;;;;;;52.67;33.33;;;;;;;;;;5095461;28;20082;-70
2024/03/03 01:24:14;;;;;;;54.50;31.73;;;;;;;;;;5076870;28;20547;-70
2024/03/03 01:26:40;;;;;;;50.25;30.92;;;;;;;;;;5058674;28;20028;-70
2024/03/03 01:29:05;;;;;;;51.47;31.38;;;;;;;;;;5092928;28;20028;-70
2024/03/03 01:31:31;;;;;;;46.65;29.42;;;;;;;;;;5074996;28;20036;-68
2024/03/03 01:33:56;;;;;;;51.75;32.63;;;;;;;;;;5058078;28;20025;-69
2024/03/03 01:36:21;;;;;;;47.92;31.23;;;;;;;;;;5092770;28;20028;-69
2024/03/03 01:38:47;;;;;;;52.50;31.55;;;;;;;;;;5091799;28;20027;-69
2024/03/03 01:41:12;;;;;;;46.72;30.63;;;;;;;;;;5092783;28;20024;-70
2024/03/03 01:43:38;;;;;;;48.50;30.95;;;;;;;;;;5071014;28;20551;-70
2024/03/03 01:46:03;;;;;;;49.35;29.95;;;;;;;;;;5071120;28;20048;-69
2024/03/03 01:48:29;;;;;;;50.35;30.23;;;;;;;;;;5054375;28;20028;-69
2024/03/03 01:50:55;;;;;;;51.60;30.38;;;;;;;;;;5071193;28;20427;-65
2024/03/03 01:53:23;;;;;;;47.22;29.83;;;;;;;;;;5073185;28;20097;-68
2024/03/03 01:55:48;;;;;;;46.83;29.13;;;;;;;;;;5073010;28;20028;-68
2024/03/03 01:58:15;;;;;;;46.53;30.08;;;;;;;;;;5072986;28;20031;-68
2024/03/03 02:00:41;;;;;;;50.67;30.88;;;;;;;;;;5072912;28;20024;-68
2024/03/03 02:03:08;;;;;;;44.20;29.77;;;;;;;;;;5056283;28;20025;-69
2024/03/03 02:05:38;;;;;;;48.60;29.45;;;;;;;;;;5072846;28;20056;-68
2024/03/03 02:08:06;;;;;;;48.42;29.50;;;;;;;;;;5074354;28;20036;-67
2024/03/03 02:10:32;;;;;;;46.15;29.02;;;;;;;;;;5074521;28;20032;-68
2024/03/03 02:12:58;;;;;;;47.65;31.13;;;;;;;;;;5074484;22;20508;-63
2024/03/03 02:15:24;;;;;;;48.78;31.30;;;;;;;;;;5097867;22;20400;-69
2024/03/03 02:17:50;;;;;;;50.70;31.23;;;;;;;;;;5072653;28;20036;-69
2024/03/03 02:20:16;;;;;;;45.60;29.75;;;;;;;;;;5073853;28;20028;-69
2024/03/03 02:25:44;;;;;;;47.25;29.25;;;;;;;;;;5092753;22;20044;-69
2024/03/03 02:28:10;;;;;;;48.00;30.65;;;;;;;;;;5092759;28;20043;-69
2024/03/03 02:30:35;;;;;;;46.35;29.40;;;;;;;;;;5093877;28;20067;-69
2024/03/03 02:33:01;;;;;;;44.70;28.60;;;;;;;;;;5075735;28;20012;-69
2024/03/03 02:35:26;;;;;;;46.90;28.55;;;;;;;;;;5093864;28;20069;-69
2024/03/03 02:37:52;;;;;;;48.38;29.20;;;;;;;;;;5093847;28;20012;-69
2024/03/03 02:40:17;;;;;;;48.28;29.75;;;;;;;;;;5058982;28;20100;-69
2024/03/03 02:42:43;;;;;;;49.00;29.38;;;;;;;;;;5093874;28;20020;-69
2024/03/03 02:45:08;;;;;;;50.20;30.67;;;;;;;;;;5093854;28;20085;-69
2024/03/03 02:47:34;;;;;;;47.72;30.35;;;;;;;;;;5092691;28;20032;-69
2024/03/03 02:49:59;;;;;;;45.80;30.30;;;;;;;;;;5094027;28;20118;-69
2024/03/03 02:52:25;;;;;;;47.25;30.40;;;;;;;;;;5076589;28;20031;-69
2024/03/03 02:54:51;;;;;;;44.63;29.50;;;;;;;;;;5076115;28;20387;-69
2024/03/03 02:57:16;;;;;;;44.88;28.77;;;;;;;;;;5094049;28;20028;-71
2024/03/03 02:59:43;;;;;;;42.30;27.67;;;;;;;;;;5094134;28;20507;-71
2024/03/03 03:02:08;;;;;;;46.78;29.83;;;;;;;;;;5075445;28;20537;-70
2024/03/03 03:04:34;;;;;;;47.67;29.67;;;;;;;;;;5094138;28;20032;-71
2024/03/03 03:06:59;;;;;;;49.45;29.60;;;;;;;;;;5102507;22;20044;-70
2024/03/03 03:09:25;;;;;;;48.60;29.63;;;;;;;;;;5055355;28;20036;-69
2024/03/03 03:11:50;;;;;;;42.63;28.48;;;;;;;;;;5055234;28;20392;-69
2024/03/03 03:14:15;;;;;;;41.38;27.08;;;;;;;;;;5038740;28;20123;-65
2024/03/03 03:16:41;;;;;;;47.45;29.35;;;;;;;;;;5055256;28;20071;-63
2024/03/03 03:19:07;;;;;;;46.95;29.35;;;;;;;;;;5073372;28;20020;-64
2024/03/03 03:21:33;;;;;;;48.10;29.08;;;;;;;;;;5074101;28;20036;-69
2024/03/03 03:23:58;;;;;;;51.30;29.55;;;;;;;;;;5059264;28;20024;-69
2024/03/03 03:26:24;;;;;;;50.35;30.48;;;;;;;;;;5059142;28;20029;-69
2024/03/03 03:28:49;;;;;;;46.47;29.05;;;;;;;;;;5059151;28;20044;-67
2024/03/03 03:31:16;;;;;;;44.30;28.40;;;;;;;;;;5059064;28;20495;-68
2024/03/03 03:33:41;;;;;;;46.20;28.05;;;;;;;;;;5059041;28;20016;-68
2024/03/03 03:36:08;;;;;;;42.63;27.73;;;;;;;;;;5076850;28;20031;-63
2024/03/03 03:38:33;;;;;;;43.45;27.95;;;;;;;;;;5059113;28;20384;-64
2024/03/03 03:40:59;;;;;;;42.20;27.13;;;;;;;;;;5076805;28;20035;-64
2024/03/03 03:43:24;;;;;;;47.28;27.45;;;;;;;;;;5076820;28;20032;-65
2024/03/03 03:45:50;;;;;;;43.55;27.63;;;;;;;;;;5076658;28;20064;-65
2024/03/03 03:48:15;;;;;;;40.40;27.40;;;;;;;;;;5076797;28;20020;-65
2024/03/03 03:50:40;;;;;;;43.45;28.13;;;;;;;;;;5076603;28;20484;-65
2024/03/03 03:53:07;;;;;;;47.08;28.67;;;;;;;;;;5058657;28;20028;-66
2024/03/03 03:55:32;;;;;;;41.42;27.67;;;;;;;;;;5076497;28;20039;-68
2024/03/03 03:57:58;;;;;;;41.70;27.58;;;;;;;;;;5076597;28;20024;-69
2024/03/03 04:00:23;;;;;;;43.42;27.02;;;;;;;;;;5076469;28;20479;-68
2024/03/03 04:02:50;;;;;;;94.93;47.58;;;;;;;;;;5058972;28;20051;-68
2024/03/03 04:05:16;;;;;;;108.30;61.00;;;;;;;;;;5076403;28;20392;-68
2024/03/03 04:07:41;;;;;;;98.50;61.90;;;;;;;;;;5076210;28;20415;-68
2024/03/03 04:10:07;;;;;;;72.25;48.58;;;;;;;;;;5058384;28;20017;-69
2024/03/03 04:12:33;;;;;;;84.50;65.13;;;;;;;;;;5076194;28;20545;-69
2024/03/03 04:14:58;;;;;;;150.38;111.78;;;;;;;;;;5076407;28;20031;-69
2024/03/03 04:17:23;;;;;;;90.68;72.32;;;;;;;;;;5076119;28;20472;-69
2024/03/03 04:19:49;;;;;;;92.05;76.75;;;;;;;;;;5076348;28;20533;-69
2024/03/03 04:22:14;;;;;;;58.60;44.28;;;;;;;;;;5076062;28;20441;-69
2024/03/03 04:24:40;;;;;;;97.70;82.30;;;;;;;;;;5076056;28;20430;-69
2024/03/03 04:27:05;;;;;;;47.58;36.10;;;;;;;;;;5076406;28;20389;-67
2024/03/03 04:29:31;;;;;;;49.47;37.15;;;;;;;;;;5059134;28;20082;-67
2024/03/03 04:32:29;;;;;;;41.25;28.67;;;;;;;;;;5099761;22;20403;-66
2024/03/03 04:35:06;;;;;;;43.75;28.23;;;;;;;;;;5052526;28;20044;-66
2024/03/03 04:37:31;;;;;;;55.65;38.78;;;;;;;;;;5054570;28;20439;-66
2024/03/03 04:39:57;;;;;;;50.50;37.85;;;;;;;;;;5055737;28;20021;-66
2024/03/03 04:45:41;;;;;;;43.33;28.00;;;;;;;;;;5073391;22;20048;-68
2024/03/03 04:48:07;;;;;;;48.67;31.63;;;;;;;;;;5076186;28;20027;-69
2024/03/03 04:50:32;;;;;;;56.38;41.10;;;;;;;;;;5057597;28;20028;-70
2024/03/03 04:52:58;;;;;;;56.92;38.90;;;;;;;;;;5041174;28;20031;-69
2024/03/03 04:55:23;;;;;;;37.08;25.88;;;;;;;;;;5075844;28;20078;-70
2024/03/03 04:57:48;;;;;;;64.32;38.97;;;;;;;;;;5075760;28;20495;-71
2024/03/03 05:00:14;;;;;;;49.45;31.73;;;;;;;;;;5075429;28;20020;-71
2024/03/03 05:02:39;;;;;;;54.15;31.95;;;;;;;;;;5075642;28;20468;-72
2024/03/03 05:05:06;;;;;;;52.05;33.92;;;;;;;;;;5075579;28;20410;-71
2024/03/03 05:07:35;;;;;;;56.38;35.15;;;;;;;;;;5057333;28;20036;-71
2024/03/03 05:10:01;;;;;;;49.30;29.67;;;;;;;;;;5040639;28;20028;-71
2024/03/03 05:12:26;;;;;;;62.03;35.95;;;;;;;;;;5075317;28;20134;-70
2024/03/03 05:14:56;;;;;;;55.08;35.78;;;;;;;;;;5057207;28;20089;-68
2024/03/03 05:17:21;;;;;;;48.15;29.98;;;;;;;;;;5075312;28;20017;-68
2024/03/03 05:19:47;;;;;;;49.15;32.10;;;;;;;;;;5057500;28;20475;-66
2024/03/03 05:22:12;;;;;;;42.22;28.88;;;;;;;;;;5056975;28;20043;-67
2024/03/03 05:24:37;;;;;;;40.42;27.70;;;;;;;;;;5074922;28;20020;-66
2024/03/03 05:27:03;;;;;;;40.55;27.23;;;;;;;;;;5074860;28;20461;-66
2024/03/03 05:29:28;;;;;;;37.22;26.52;;;;;;;;;;5057028;28;20027;-64
2024/03/03 05:31:54;;;;;;;40.90;27.75;;;;;;;;;;5074965;28;20376;-64
2024/03/03 05:34:21;;;;;;;43.15;31.17;;;;;;;;;;5074698;28;20097;-64
2024/03/03 05:36:47;;;;;;;37.78;26.13;;;;;;;;;;5056764;28;20074;-64
2024/03/03 05:39:13;;;;;;;37.95;24.92;;;;;;;;;;5074908;28;20418;-64
2024/03/03 05:41:42;;;;;;;38.78;27.38;;;;;;;;;;5056678;28;20448;-64
2024/03/03 05:44:08;;;;;;;30.65;19.92;;;;;;;;;;5074522;28;20464;-64
2024/03/03 05:46:37;;;;;;;26.95;18.33;;;;;;;;;;5074414;28;20066;-64
2024/03/03 05:49:02;;;;;;;30.73;19.95;;;;;;;;;;5074992;28;20064;-64
2024/03/03 05:51:28;;;;;;;34.17;21.25;;;;;;;;;;5056329;28;20141;-65
2024/03/03 05:53:53;;;;;;;28.92;20.95;;;;;;;;;;5039890;28;20204;-64
2024/03/03 05:56:19;;;;;;;28.80;20.10;;;;;;;;;;5056537;28;20388;-65
2024/03/03 05:58:44;;;;;;;28.70;19.08;;;;;;;;;;5074276;28;20459;-65
2024/03/03 06:01:10;;;;;;;35.10;21.40;;;;;;;;;;5074775;28;20028;-65
2024/03/03 06:03:39;;;;;;;26.85;18.92;;;;;;;;;;5074453;28;20034;-64
2024/03/03 06:06:04;;;;;;;28.35;18.45;;;;;;;;;;5074102;28;20032;-67
2024/03/03 06:08:32;;;;;;;32.78;18.55;;;;;;;;;;5074405;28;20029;-66
2024/03/03 06:10:57;;;;;;;29.77;17.63;;;;;;;;;;5056072;28;20020;-65
2024/03/03 06:13:22;;;;;;;35.38;20.30;;;;;;;;;;5074262;28;20375;-66
2024/03/03 06:15:48;;;;;;;28.83;18.85;;;;;;;;;;5084086;22;20580;-67
2024/03/03 06:18:14;;;;;;;39.30;19.77;;;;;;;;;;5074819;28;20024;-65
2024/03/03 06:20:39;;;;;;;44.38;23.92;;;;;;;;;;5074307;28;20035;-67
2024/03/03 06:23:05;;;;;;;36.47;19.58;;;;;;;;;;5073824;28;20044;-66
2024/03/03 06:25:31;;;;;;;34.92;20.75;;;;;;;;;;5055887;28;20029;-65
2024/03/03 06:27:57;;;;;;;30.55;19.40;;;;;;;;;;5073800;28;20032;-65
2024/03/03 06:30:22;;;;;;;30.98;19.13;;;;;;;;;;5055823;28;20051;-70
2024/03/03 06:32:47;;;;;;;27.42;18.58;;;;;;;;;;5074235;28;20127;-67
2024/03/03 06:35:13;;;;;;;28.80;18.67;;;;;;;;;;5055764;28;20017;-68
2024/03/03 06:37:38;;;;;;;26.73;18.08;;;;;;;;;;5073701;28;20008;-67
2024/03/03 06:40:04;;;;;;;25.83;17.05;;;;;;;;;;5055452;28;20035;-64
2024/03/03 06:42:33;;;;;;;29.40;19.58;;;;;;;;;;5074202;28;20048;-65
2024/03/03 06:44:59;;;;;;;27.52;17.38;;;;;;;;;;5073561;28;20591;-65
2024/03/03 06:47:24;;;;;;;25.95;17.40;;;;;;;;;;5055682;28;20060;-65
2024/03/03 06:49:52;;;;;;;24.92;16.67;;;;;;;;;;5073583;28;20031;-65
2024/03/03 06:52:17;;;;;;;25.20;16.88;;;;;;;;;;5099690;22;20127;-65
2024/03/03 06:54:42;;;;;;;25.83;16.95;;;;;;;;;;5093668;28;20058;-70
2024/03/03 06:57:08;;;;;;;26.58;16.45;;;;;;;;;;5091708;28;20119;-70
2024/03/03 06:59:34;;;;;;;26.10;16.27;;;;;;;;;;5092376;28;20391;-70
2024/03/03 07:02:14;;;;;;;28.27;17.55;;;;;;;;;;5080935;23;20147;-70
2024/03/03 07:04:41;;;;;;;23.20;16.33;;;;;;;;;;5106303;22;21138;-65
2024/03/03 07:07:07;;;;;;;25.33;16.63;;;;;;;;;;5075742;28;20024;-64
2024/03/03 07:09:32;;;;;;;25.85;17.25;;;;;;;;;;5094166;28;20020;-64
2024/03/03 07:12:01;;;;;;;26.02;17.52;;;;;;;;;;5093466;28;20533;-64
2024/03/03 07:14:26;;;;;;;25.83;16.50;;;;;;;;;;5093831;28;20024;-64
2024/03/03 07:16:51;;;;;;;25.25;16.10;;;;;;;;;;5092187;28;20021;-64
2024/03/03 07:19:19;;;;;;;27.85;18.23;;;;;;;;;;5092182;28;20039;-64
2024/03/03 07:21:45;;;;;;;28.02;16.90;;;;;;;;;;5091475;22;20042;-64
2024/03/03 07:24:11;;;;;;;23.38;16.52;;;;;;;;;;5053479;28;20025;-64
2024/03/03 07:26:36;;;;;;;22.33;15.07;;;;;;;;;;5051938;28;20024;-65
2024/03/03 07:29:03;;;;;;;25.50;14.98;;;;;;;;;;5053431;28;20381;-64
2024/03/03 07:31:31;;;;;;;24.17;15.80;;;;;;;;;;5053368;28;20079;-64
2024/03/03 07:33:57;;;;;;;23.63;16.50;;;;;;;;;;5052223;28;20033;-64
2024/03/03 07:36:22;;;;;;;25.08;17.95;;;;;;;;;;5051707;28;20104;-71
2024/03/03 07:38:47;;;;;;;25.65;15.55;;;;;;;;;;5053457;28;20029;-71
2024/03/03 07:41:13;;;;;;;25.10;16.23;;;;;;;;;;5052134;28;20040;-71
2024/03/03 07:43:38;;;;;;;22.80;13.90;;;;;;;;;;5052267;28;20033;-77
2024/03/03 07:46:05;;;;;;;21.45;14.15;;;;;;;;;;5058441;28;20060;-76
2024/03/03 07:48:31;;;;;;;17.83;12.90;;;;;;;;;;5056580;28;20443;-76
2024/03/03 07:50:56;;;;;;;22.13;14.77;;;;;;;;;;5055377;28;20098;-71
2024/03/03 07:53:22;;;;;;;13.93;10.07;;;;;;;;;;5050995;28;20033;-71
2024/03/03 07:55:48;;;;;;;20.42;14.05;;;;;;;;;;5051357;28;20060;-74
2024/03/03 07:58:13;;;;;;;26.27;15.30;;;;;;;;;;5049744;28;20029;-72
2024/03/03 08:00:40;;;;;;;24.17;14.85;;;;;;;;;;5049540;28;20021;-74
2024/03/03 08:03:05;;;;;;;20.30;13.50;;;;;;;;;;5051195;28;20141;-73
2024/03/03 08:05:34;;;;;;;21.33;14.18;;;;;;;;;;5051288;28;20017;-73
2024/03/03 08:08:00;;;;;;;20.35;14.93;;;;;;;;;;5054070;28;20116;-73
2024/03/03 08:10:25;;;;;;;23.65;15.43;;;;;;;;;;5056669;28;20092;-73
2024/03/03 08:12:51;;;;;;;18.73;13.48;;;;;;;;;;5055015;28;20025;-73
2024/03/03 08:15:17;;;;;;;26.27;19.00;;;;;;;;;;5054962;28;20025;-73
2024/03/03 08:17:42;;;;;;;25.40;17.92;;;;;;;;;;5056970;28;20029;-73
2024/03/03 08:20:08;;;;;;;23.50;14.63;;;;;;;;;;5056856;28;20027;-73
2024/03/03 08:22:34;;;;;;;23.40;16.20;;;;;;;;;;5055266;28;20602;-73
2024/03/03 08:25:02;;;;;;;19.45;14.23;;;;;;;;;;5056440;28;20108;-73
2024/03/03 08:27:27;;;;;;;19.80;14.05;;;;;;;;;;5056601;28;20059;-73
2024/03/03 08:29:53;;;;;;;24.25;15.07;;;;;;;;;;5056566;28;20034;-73
2024/03/03 08:32:18;;;;;;;18.63;13.63;;;;;;;;;;5056549;28;20045;-73
2024/03/03 08:34:44;;;;;;;17.13;12.00;;;;;;;;;;5056147;28;20021;-73
2024/03/03 08:37:09;;;;;;;15.25;11.80;;;;;;;;;;5054822;28;20377;-73
2024/03/03 08:39:34;;;;;;;16.98;11.63;;;;;;;;;;5056133;28;20103;-73
2024/03/03 08:42:00;;;;;;;16.45;11.35;;;;;;;;;;5056077;28;20079;-73
2024/03/03 08:44:26;;;;;;;17.15;10.50;;;;;;;;;;5055671;28;20025;-73
2024/03/03 08:46:51;;;;;;;15.82;10.18;;;;;;;;;;5056384;28;20041;-74
2024/03/03 08:49:17;;;;;;;13.63;8.93;;;;;;;;;;5055984;28;20033;-73
2024/03/03 08:51:43;;;;;;;12.10;8.90;;;;;;;;;;5055778;28;20032;-73
2024/03/03 08:54:08;;;;;;;11.98;8.63;;;;;;;;;;5055059;28;20056;-73
2024/03/03 08:56:34;;;;;;;11.52;8.80;;;;;;;;;;5054840;28;20040;-73
2024/03/03 08:58:59;;;;;;;11.25;8.23;;;;;;;;;;5056002;28;20036;-73
2024/03/03 09:01:25;;;;;;;7.47;6.03;;;;;;;;;;5054314;28;20033;-73
2024/03/03 09:03:50;;;;;;;7.85;5.85;;;;;;;;;;5051143;28;20112;-73
2024/03/03 09:06:16;;;;;;;9.15;5.72;;;;;;;;;;5033943;28;20341;-73
2024/03/03 09:08:44;;;;;;;5.30;4.80;;;;;;;;;;5050809;28;20109;-73
2024/03/03 09:11:11;;;;;;;6.90;4.95;;;;;;;;;;5052110;28;20079;-73
2024/03/03 09:13:37;;;;;;;6.40;5.40;;;;;;;;;;5051222;28;20133;-73
2024/03/03 09:16:02;;;;;;;5.78;4.75;;;;;;;;;;5052616;28;20487;-69
2024/03/03 09:18:28;;;;;;;6.20;5.25;;;;;;;;;;5053752;28;20021;-69
2024/03/03 09:20:53;;;;;;;5.07;4.38;;;;;;;;;;5054697;28;20033;-69
2024/03/03 09:23:19;;;;;;;7.55;5.18;;;;;;;;;;5055655;28;20045;-72
2024/03/03 09:25:45;;;;;;;5.88;4.40;;;;;;;;;;5054981;28;20473;-72
2024/03/03 09:28:10;;;;;;;4.68;4.28;;;;;;;;;;5053727;28;20044;-72
2024/03/03 09:30:35;;;;;;;4.55;3.70;;;;;;;;;;5055076;28;20033;-73
2024/03/03 09:33:02;;;;;;;10.50;6.03;;;;;;;;;;5054640;28;20104;-72
2024/03/03 09:35:27;;;;;;;5.32;4.57;;;;;;;;;;5053387;28;20036;-72
2024/03/03 09:37:53;;;;;;;4.20;3.80;;;;;;;;;;5053936;28;20120;-72
2024/03/03 09:40:19;;;;;;;4.55;4.13;;;;;;;;;;5053783;28;20040;-72
2024/03/03 09:42:45;;;;;;;5.80;4.15;;;;;;;;;;5054913;28;20032;-64
2024/03/03 09:45:15;;;;;;;4.03;3.63;;;;;;;;;;5055087;28;20029;-64
2024/03/03 09:47:41;;;;;;;4.00;3.70;;;;;;;;;;5053116;28;20056;-64
2024/03/03 09:50:10;;;;;;;4.85;3.70;;;;;;;;;;5054027;28;20067;-64
2024/03/03 09:52:38;;;;;;;5.30;3.38;;;;;;;;;;5053218;28;20039;-65
2024/03/03 09:55:05;;;;;;;4.05;3.72;;;;;;;;;;5053152;28;20024;-65
2024/03/03 09:57:32;;;;;;;4.07;3.22;;;;;;;;;;5053126;28;20029;-65
2024/03/03 09:59:58;;;;;;;3.22;3.00;;;;;;;;;;5053250;28;20424;-64
2024/03/03 10:02:24;;;;;;;4.13;3.80;;;;;;;;;;5051022;28;20031;-64
2024/03/03 10:04:52;;;;;;;3.28;3.08;;;;;;;;;;5051487;28;20028;-65
2024/03/03 10:07:22;;;;;;;3.92;3.50;;;;;;;;;;5051607;28;20039;-64
2024/03/03 10:09:52;;;;;;;5.88;3.17;;;;;;;;;;5050780;28;20036;-64
2024/03/03 10:12:23;;;;;;;4.30;3.22;;;;;;;;;;5061417;28;20115;-64
2024/03/03 10:14:48;;;;;;;;;;;;;;;;;;5050518;28;20654;-65
2024/03/03 10:17:14;;;;;;;3.65;3.35;;;;;;;;;;5051867;28;19909;-64
2024/03/03 10:19:39;;;;;;;3.97;3.47;;;;;;;;;;5051747;28;20025;-64
2024/03/03 10:22:06;;;;;;;4.22;3.47;;;;;;;;;;5062645;28;20028;-64
2024/03/03 10:24:31;;;;;;;3.15;2.95;;;;;;;;;;5063489;28;20028;-70
2024/03/03 10:26:59;;;;;;;3.95;3.45;;;;;;;;;;5050048;28;20044;-63
2024/03/03 10:29:25;;;;;;;3.63;3.03;;;;;;;;;;5056467;28;20042;-64
2024/03/03 10:31:53;;;;;;;3.88;3.47;;;;;;;;;;5073218;28;20044;-64
2024/03/03 10:34:20;;;;;;;4.15;3.85;;;;;;;;;;5056313;28;20029;-63
2024/03/03 10:36:46;;;;;;;3.47;3.15;;;;;;;;;;5074136;28;20118;-64
2024/03/03 10:39:12;;;;;;;4.30;3.90;;;;;;;;;;5074260;28;20355;-64
2024/03/03 10:41:38;;;;;;;6.38;3.95;;;;;;;;;;5056195;28;20345;-64
2024/03/03 10:44:04;;;;;;;3.85;3.55;;;;;;;;;;5056407;28;20062;-64
2024/03/03 10:46:30;;;;;;;3.45;2.90;;;;;;;;;;5074131;28;20119;-64
2024/03/03 10:48:56;;;;;;;3.50;3.20;;;;;;;;;;5055998;28;20095;-63
2024/03/03 10:51:22;;;;;;;3.22;2.92;;;;;;;;;;5073996;28;20444;-63
2024/03/03 10:53:51;;;;;;;3.20;2.85;;;;;;;;;;5056034;28;20021;-64
2024/03/03 10:56:18;;;;;;;3.83;3.03;;;;;;;;;;5074644;28;20060;-64
2024/03/03 10:58:44;;;;;;;3.38;3.08;;;;;;;;;;5055722;28;20025;-64
2024/03/03 11:01:10;;;;;;;3.28;3.05;;;;;;;;;;5056289;28;20033;-64
2024/03/03 11:03:36;;;;;;;3.80;3.42;;;;;;;;;;5072840;28;20031;-64
2024/03/03 11:06:05;;;;;;;3.50;3.20;;;;;;;;;;5055090;28;20043;-64
2024/03/03 11:08:31;;;;;;;3.30;3.05;;;;;;;;;;5053189;28;20104;-64
2024/03/03 11:11:02;;;;;;;2.90;2.70;;;;;;;;;;5052262;28;20024;-63
2024/03/03 11:13:29;;;;;;;2.95;2.75;;;;;;;;;;5070418;28;20029;-64
2024/03/03 11:15:55;;;;;;;3.33;3.03;;;;;;;;;;5070089;28;20477;-63
2024/03/03 11:18:24;;;;;;;10.40;7.03;;;;;;;;;;5052390;28;20024;-64
2024/03/03 11:20:52;;;;;;;25.75;17.27;;;;;;;;;;5070722;28;20029;-64
2024/03/03 11:23:48;;;;;;;6.80;4.25;;;;;;;;;;5069537;28;20124;-64
2024/03/03 11:26:24;;;;;;;6.63;3.70;;;;;;;;;;5040849;28;20036;-64
2024/03/03 11:28:54;;;;;;;4.13;3.72;;;;;;;;;;5069870;28;20025;-63
2024/03/03 11:31:19;;;;;;;3.00;2.78;;;;;;;;;;5053568;28;20403;-64
2024/03/03 11:33:45;;;;;;;3.60;3.30;;;;;;;;;;5072500;28;20035;-63
2024/03/03 11:36:11;;;;;;;3.25;3.00;;;;;;;;;;5073477;28;20086;-64
2024/03/03 11:38:41;;;;;;;2.75;2.42;;;;;;;;;;5073114;28;20029;-63
2024/03/03 11:41:12;;;;;;;2.97;2.72;;;;;;;;;;5071915;28;20392;-63
2024/03/03 11:43:39;;;;;;;2.50;2.03;;;;;;;;;;5075962;28;20029;-64
2024/03/03 11:46:04;;;;;;;2.83;2.50;;;;;;;;;;5077182;28;20039;-64
2024/03/03 11:48:29;;;;;;;2.95;2.75;;;;;;;;;;5076867;28;20036;-64
2024/03/03 11:51:18;;;;;;;3.10;2.80;;;;;;;;;;5076711;28;20033;-63
2024/03/03 11:53:56;;;;;;;3.25;3.00;;;;;;;;;;5071037;28;20087;-64
2024/03/03 11:56:21;;;;;;;3.30;3.00;;;;;;;;;;5076971;28;20056;-63
2024/03/03 11:58:48;;;;;;;3.30;3.08;;;;;;;;;;5075379;28;20427;-63
2024/03/03 12:01:20;;;;;;;2.92;2.72;;;;;;;;;;5075394;28;20036;-63
2024/03/03 12:03:46;;;;;;;3.03;2.83;;;;;;;;;;5077091;28;20024;-63
2024/03/03 12:06:12;;;;;;;3.17;2.88;;;;;;;;;;5077046;28;20035;-63
2024/03/03 12:08:38;;;;;;;2.90;2.70;;;;;;;;;;5075171;28;20115;-63
2024/03/03 12:11:11;;;;;;;2.85;2.65;;;;;;;;;;5075425;28;20025;-63
2024/03/03 12:13:36;;;;;;;4.18;3.40;;;;;;;;;;5076701;28;20056;-63
2024/03/03 12:16:02;;;;;;;3.10;2.90;;;;;;;;;;5075407;28;20372;-63
2024/03/03 12:18:27;;;;;;;3.15;2.92;;;;;;;;;;5076817;28;20444;-63
2024/03/03 12:20:52;;;;;;;2.92;2.72;;;;;;;;;;5074980;28;20059;-63
2024/03/03 12:23:18;;;;;;;3.47;2.67;;;;;;;;;;5074786;28;20419;-64
2024/03/03 12:25:44;;;;;;;3.53;2.95;;;;;;;;;;5076412;28;20032;-63
2024/03/03 12:28:09;;;;;;;3.33;2.88;;;;;;;;;;5058195;28;20070;-64
2024/03/03 12:30:35;;;;;;;3.03;2.75;;;;;;;;;;5087988;22;20015;-71
2024/03/03 12:33:02;;;;;;;3.33;2.67;;;;;;;;;;5099402;22;20186;-63
2024/03/03 12:35:36;;;;;;;3.00;2.80;;;;;;;;;;5095915;22;20501;-71
2024/03/03 12:38:02;;;;;;;2.88;2.65;;;;;;;;;;5076175;28;20461;-72
2024/03/03 12:40:28;;;;;;;2.97;2.78;;;;;;;;;;5075868;28;20036;-71
2024/03/03 12:42:54;;;;;;;2.95;2.75;;;;;;;;;;5075830;28;20033;-71
2024/03/03 12:45:19;;;;;;;2.90;2.65;;;;;;;;;;5076317;28;20456;-71
2024/03/03 12:47:45;;;;;;;5.38;3.60;;;;;;;;;;5057774;28;20400;-72
2024/03/03 12:50:14;;;;;;;4.22;3.60;;;;;;;;;;5074780;28;20070;-71
2024/03/03 12:52:40;;;;;;;5.75;3.90;;;;;;;;;;5075826;28;20028;-71
2024/03/03 12:55:06;;;;;;;3.20;3.00;;;;;;;;;;5057059;28;20040;-73
2024/03/03 12:57:32;;;;;;;3.80;3.50;;;;;;;;;;5041294;28;20028;-72
2024/03/03 12:59:58;;;;;;;3.40;3.10;;;;;;;;;;5076053;28;20033;-72
2024/03/03 13:02:23;;;;;;;3.45;3.15;;;;;;;;;;5057559;28;20028;-72
2024/03/03 13:04:53;;;;;;;3.50;3.25;;;;;;;;;;5057501;28;20097;-72
2024/03/03 13:07:20;;;;;;;3.75;3.47;;;;;;;;;;5075955;28;20033;-72
2024/03/03 13:09:45;;;;;;;3.20;3.00;;;;;;;;;;5075560;28;20024;-72
2024/03/03 13:12:11;;;;;;;3.25;3.05;;;;;;;;;;5075162;28;20461;-72
2024/03/03 13:14:36;;;;;;;2.22;2.03;;;;;;;;;;5075773;28;20025;-72
2024/03/03 13:17:05;;;;;;;3.50;3.20;;;;;;;;;;5057227;28;20441;-72
2024/03/03 13:19:44;;;;;;;2.92;2.60;;;;;;;;;;5057206;28;20016;-72
2024/03/03 13:22:10;;;;;;;2.93;2.73;;;;;;;;;;5057182;28;20040;-72
2024/03/03 13:24:47;;;;;;;2.63;2.42;;;;;;;;;;5075259;28;20210;-72
2024/03/03 13:27:12;;;;;;;2.97;2.78;;;;;;;;;;5074986;28;20035;-72
2024/03/03 13:29:38;;;;;;;2.90;2.75;;;;;;;;;;5057375;28;20467;-72
2024/03/03 13:32:03;;;;;;;4.57;3.83;;;;;;;;;;5056835;28;20028;-72
2024/03/03 13:34:29;;;;;;;8.65;5.22;;;;;;;;;;5075602;28;20024;-72
2024/03/03 13:36:54;;;;;;;6.13;5.53;;;;;;;;;;5074625;28;20099;-72
2024/03/03 13:39:20;;;;;;;7.07;6.07;;;;;;;;;;5074985;28;20073;-72
2024/03/03 13:41:45;;;;;;;7.90;6.43;;;;;;;;;;5057088;28;20020;-72
2024/03/03 13:44:11;;;;;;;7.20;5.88;;;;;;;;;;5074887;28;20033;-72
2024/03/03 13:46:36;;;;;;;5.82;5.05;;;;;;;;;;5074840;28;20032;-72
2024/03/03 13:49:02;;;;;;;8.27;5.65;;;;;;;;;;5056618;28;20455;-72
2024/03/03 13:51:27;;;;;;;7.10;6.00;;;;;;;;;;5074648;28;20075;-72
2024/03/03 13:53:54;;;;;;;8.75;6.93;;;;;;;;;;5074673;28;20047;-72
2024/03/03 13:56:19;;;;;;;8.90;7.38;;;;;;;;;;5074650;28;20029;-72
2024/03/03 13:58:45;;;;;;;7.65;6.47;;;;;;;;;;5074580;28;20158;-72
2024/03/03 14:01:12;;;;;;;9.23;6.60;;;;;;;;;;5103356;22;20141;-64
2024/03/03 14:03:38;;;;;;;8.88;6.85;;;;;;;;;;5057045;28;20178;-64
2024/03/03 14:06:03;;;;;;;7.28;6.50;;;;;;;;;;5073992;28;20078;-64
2024/03/03 14:08:28;;;;;;;7.70;6.90;;;;;;;;;;5074438;28;20491;-64
2024/03/03 14:10:55;;;;;;;10.23;6.88;;;;;;;;;;5057141;28;20079;-64
2024/03/03 14:13:20;;;;;;;8.45;7.10;;;;;;;;;;5074654;28;20036;-65
2024/03/03 14:15:45;;;;;;;8.02;7.18;;;;;;;;;;5074607;28;20040;-64
2024/03/03 14:18:11;;;;;;;10.70;6.95;;;;;;;;;;5074513;28;20046;-64
2024/03/03 14:20:36;;;;;;;11.98;7.15;;;;;;;;;;5074240;28;20055;-64
2024/03/03 14:23:03;;;;;;;9.43;7.28;;;;;;;;;;5073902;28;20043;-64
2024/03/03 14:25:28;;;;;;;7.93;7.15;;;;;;;;;;5073855;28;20055;-64
2024/03/03 14:27:54;;;;;;;9.85;6.72;;;;;;;;;;5073869;28;20480;-64